sensor_id;sensor_type;location;lat;lon;timestamp;P1;durP1;ratioP1;P2;durP2;ratioP2
75156;SDS011;63736;50.076;8.198;2024-02-15T00:00:08;13.68;;;7.65;;
75156;SDS011;63736;50.076;8.198;2024-02-15T00:01:39;11.70;;;6.77;;
75156;SDS011;63736;50.076;8.198;2024-02-15T00:03:09;14.80;;;7.67;;
75156;SDS011;63736;50.076;8.198;2024-02-15T00:04:43;12.70;;;6.88;;
75156;SDS011;63736;50.076;8.198;2024-02-15T00:06:13;11.03;;;6.93;;
75156;SDS011;63736;50.076;8.198;2024-02-15T00:07:43;13.77;;;7.67;;
75156;SDS011;63736;50.076;8.198;2024-02-15T00:09:14;13.10;;;7.27;;
75156;SDS011;63736;50.076;8.198;2024-02-15T00:10:44;13.83;;;8.27;;
75156;SDS011;63736;50.076;8.198;2024-02-15T00:12:16;15.33;;;8.73;;
75156;SDS011;63736;50.076;8.198;2024-02-15T00:13:46;13.00;;;7.53;;
75156;SDS011;63736;50.076;8.198;2024-02-15T00:15:16;13.10;;;7.50;;
75156;SDS011;63736;50.076;8.198;2024-02-15T00:16:47;16.97;;;9.63;;
75156;SDS011;63736;50.076;8.198;2024-02-15T00:18:17;13.73;;;7.87;;
75156;SDS011;63736;50.076;8.198;2024-02-15T00:19:47;14.23;;;8.17;;
75156;SDS011;63736;50.076;8.198;2024-02-15T00:21:17;11.90;;;7.13;;
75156;SDS011;63736;50.076;8.198;2024-02-15T00:22:48;11.63;;;6.82;;
75156;SDS011;63736;50.076;8.198;2024-02-15T00:24:19;12.98;;;7.60;;
75156;SDS011;63736;50.076;8.198;2024-02-15T00:25:50;12.00;;;7.00;;
75156;SDS011;63736;50.076;8.198;2024-02-15T00:27:20;14.63;;;7.13;;
75156;SDS011;63736;50.076;8.198;2024-02-15T00:28:51;13.07;;;7.30;;
75156;SDS011;63736;50.076;8.198;2024-02-15T00:30:21;11.80;;;6.93;;
75156;SDS011;63736;50.076;8.198;2024-02-15T00:31:51;17.70;;;9.63;;
75156;SDS011;63736;50.076;8.198;2024-02-15T00:33:22;12.10;;;7.23;;
75156;SDS011;63736;50.076;8.198;2024-02-15T00:34:52;12.50;;;7.47;;
75156;SDS011;63736;50.076;8.198;2024-02-15T00:36:23;14.37;;;7.73;;
75156;SDS011;63736;50.076;8.198;2024-02-15T00:37:53;17.43;;;8.80;;
75156;SDS011;63736;50.076;8.198;2024-02-15T00:39:23;16.13;;;8.98;;
75156;SDS011;63736;50.076;8.198;2024-02-15T00:40:54;18.93;;;10.27;;
75156;SDS011;63736;50.076;8.198;2024-02-15T00:42:25;19.67;;;10.47;;
75156;SDS011;63736;50.076;8.198;2024-02-15T00:43:55;20.40;;;10.07;;
75156;SDS011;63736;50.076;8.198;2024-02-15T00:45:26;21.33;;;10.90;;
75156;SDS011;63736;50.076;8.198;2024-02-15T00:46:56;18.23;;;8.93;;
75156;SDS011;63736;50.076;8.198;2024-02-15T00:48:26;18.47;;;10.30;;
75156;SDS011;63736;50.076;8.198;2024-02-15T00:49:58;17.20;;;9.52;;
75156;SDS011;63736;50.076;8.198;2024-02-15T00:51:29;24.23;;;10.77;;
75156;SDS011;63736;50.076;8.198;2024-02-15T00:52:59;18.50;;;9.53;;
75156;SDS011;63736;50.076;8.198;2024-02-15T00:54:29;16.17;;;8.68;;
75156;SDS011;63736;50.076;8.198;2024-02-15T00:55:59;20.47;;;10.03;;
75156;SDS011;63736;50.076;8.198;2024-02-15T00:57:30;16.47;;;8.97;;
75156;SDS011;63736;50.076;8.198;2024-02-15T00:59:00;17.40;;;8.90;;
75156;SDS011;63736;50.076;8.198;2024-02-15T01:00:33;14.93;;;8.02;;
75156;SDS011;63736;50.076;8.198;2024-02-15T01:02:04;17.60;;;8.20;;
75156;SDS011;63736;50.076;8.198;2024-02-15T01:03:35;14.95;;;8.38;;
75156;SDS011;63736;50.076;8.198;2024-02-15T01:05:06;17.63;;;8.75;;
75156;SDS011;63736;50.076;8.198;2024-02-15T01:06:36;16.27;;;8.50;;
75156;SDS011;63736;50.076;8.198;2024-02-15T01:08:06;14.13;;;7.60;;
75156;SDS011;63736;50.076;8.198;2024-02-15T01:09:38;15.25;;;8.18;;
75156;SDS011;63736;50.076;8.198;2024-02-15T01:11:09;16.47;;;8.17;;
75156;SDS011;63736;50.076;8.198;2024-02-15T01:12:39;22.02;;;10.80;;
75156;SDS011;63736;50.076;8.198;2024-02-15T01:14:09;16.03;;;8.60;;
75156;SDS011;63736;50.076;8.198;2024-02-15T01:15:40;15.47;;;7.77;;
75156;SDS011;63736;50.076;8.198;2024-02-15T01:17:11;18.10;;;9.30;;
75156;SDS011;63736;50.076;8.198;2024-02-15T01:18:41;16.13;;;8.13;;
75156;SDS011;63736;50.076;8.198;2024-02-15T01:20:11;18.07;;;8.90;;
75156;SDS011;63736;50.076;8.198;2024-02-15T01:21:42;16.67;;;9.15;;
75156;SDS011;63736;50.076;8.198;2024-02-15T01:23:14;15.33;;;8.70;;
75156;SDS011;63736;50.076;8.198;2024-02-15T01:24:45;14.63;;;7.57;;
75156;SDS011;63736;50.076;8.198;2024-02-15T01:26:15;14.13;;;8.43;;
75156;SDS011;63736;50.076;8.198;2024-02-15T01:27:45;13.88;;;7.13;;
75156;SDS011;63736;50.076;8.198;2024-02-15T01:29:15;17.70;;;9.60;;
75156;SDS011;63736;50.076;8.198;2024-02-15T01:30:46;19.43;;;9.60;;
75156;SDS011;63736;50.076;8.198;2024-02-15T01:32:17;14.67;;;8.00;;
75156;SDS011;63736;50.076;8.198;2024-02-15T01:33:47;18.63;;;8.77;;
75156;SDS011;63736;50.076;8.198;2024-02-15T01:35:18;15.50;;;7.90;;
75156;SDS011;63736;50.076;8.198;2024-02-15T01:36:48;21.98;;;10.30;;
75156;SDS011;63736;50.076;8.198;2024-02-15T01:38:20;16.88;;;8.80;;
75156;SDS011;63736;50.076;8.198;2024-02-15T01:39:51;15.07;;;7.80;;
75156;SDS011;63736;50.076;8.198;2024-02-15T01:41:21;15.80;;;7.95;;
75156;SDS011;63736;50.076;8.198;2024-02-15T01:42:52;15.23;;;8.37;;
75156;SDS011;63736;50.076;8.198;2024-02-15T01:44:22;13.47;;;7.57;;
75156;SDS011;63736;50.076;8.198;2024-02-15T01:45:54;16.00;;;8.32;;
75156;SDS011;63736;50.076;8.198;2024-02-15T01:47:26;14.68;;;7.72;;
75156;SDS011;63736;50.076;8.198;2024-02-15T01:48:57;15.23;;;8.15;;
75156;SDS011;63736;50.076;8.198;2024-02-15T01:50:27;14.93;;;8.30;;
75156;SDS011;63736;50.076;8.198;2024-02-15T01:51:58;13.03;;;7.10;;
75156;SDS011;63736;50.076;8.198;2024-02-15T01:53:30;18.50;;;8.48;;
75156;SDS011;63736;50.076;8.198;2024-02-15T01:55:02;16.33;;;8.38;;
75156;SDS011;63736;50.076;8.198;2024-02-15T01:56:37;19.35;;;9.80;;
75156;SDS011;63736;50.076;8.198;2024-02-15T01:58:08;18.67;;;10.20;;
75156;SDS011;63736;50.076;8.198;2024-02-15T01:59:38;15.03;;;8.10;;
75156;SDS011;63736;50.076;8.198;2024-02-15T02:01:09;18.63;;;8.90;;
75156;SDS011;63736;50.076;8.198;2024-02-15T02:02:41;25.25;;;10.23;;
75156;SDS011;63736;50.076;8.198;2024-02-15T02:04:12;21.60;;;10.10;;
75156;SDS011;63736;50.076;8.198;2024-02-15T02:05:42;22.07;;;10.73;;
75156;SDS011;63736;50.076;8.198;2024-02-15T02:07:13;15.00;;;8.50;;
75156;SDS011;63736;50.076;8.198;2024-02-15T02:08:44;19.47;;;9.43;;
75156;SDS011;63736;50.076;8.198;2024-02-15T02:10:15;15.68;;;7.57;;
75156;SDS011;63736;50.076;8.198;2024-02-15T02:11:45;17.30;;;8.97;;
75156;SDS011;63736;50.076;8.198;2024-02-15T02:13:16;26.13;;;12.07;;
75156;SDS011;63736;50.076;8.198;2024-02-15T02:14:47;22.77;;;10.80;;
75156;SDS011;63736;50.076;8.198;2024-02-15T02:17:57;23.02;;;10.82;;
75156;SDS011;63736;50.076;8.198;2024-02-15T02:19:29;22.08;;;9.80;;
75156;SDS011;63736;50.076;8.198;2024-02-15T02:20:59;18.17;;;9.03;;
75156;SDS011;63736;50.076;8.198;2024-02-15T02:22:30;19.10;;;9.15;;
75156;SDS011;63736;50.076;8.198;2024-02-15T02:24:02;19.05;;;10.25;;
75156;SDS011;63736;50.076;8.198;2024-02-15T02:25:37;19.25;;;9.57;;
75156;SDS011;63736;50.076;8.198;2024-02-15T02:27:08;18.48;;;8.45;;
75156;SDS011;63736;50.076;8.198;2024-02-15T02:28:40;17.63;;;8.77;;
75156;SDS011;63736;50.076;8.198;2024-02-15T02:30:14;23.75;;;10.88;;
75156;SDS011;63736;50.076;8.198;2024-02-15T02:31:47;14.63;;;8.33;;
75156;SDS011;63736;50.076;8.198;2024-02-15T02:33:18;16.52;;;9.02;;
75156;SDS011;63736;50.076;8.198;2024-02-15T02:34:51;14.32;;;7.85;;
75156;SDS011;63736;50.076;8.198;2024-02-15T02:36:27;12.27;;;6.68;;
75156;SDS011;63736;50.076;8.198;2024-02-15T02:37:59;13.48;;;7.43;;
75156;SDS011;63736;50.076;8.198;2024-02-15T02:39:29;11.40;;;5.67;;
75156;SDS011;63736;50.076;8.198;2024-02-15T02:41:01;11.55;;;6.35;;
75156;SDS011;63736;50.076;8.198;2024-02-15T02:42:31;11.60;;;6.60;;
75156;SDS011;63736;50.076;8.198;2024-02-15T02:44:02;15.23;;;6.78;;
75156;SDS011;63736;50.076;8.198;2024-02-15T02:45:32;17.63;;;8.57;;
75156;SDS011;63736;50.076;8.198;2024-02-15T02:47:03;16.60;;;8.03;;
75156;SDS011;63736;50.076;8.198;2024-02-15T02:48:33;13.35;;;6.78;;
75156;SDS011;63736;50.076;8.198;2024-02-15T02:50:04;15.83;;;8.07;;
75156;SDS011;63736;50.076;8.198;2024-02-15T02:51:34;17.27;;;9.07;;
75156;SDS011;63736;50.076;8.198;2024-02-15T02:53:04;16.07;;;8.80;;
75156;SDS011;63736;50.076;8.198;2024-02-15T02:54:35;18.05;;;9.30;;
75156;SDS011;63736;50.076;8.198;2024-02-15T02:56:05;17.50;;;8.73;;
75156;SDS011;63736;50.076;8.198;2024-02-15T02:57:38;16.02;;;8.50;;
75156;SDS011;63736;50.076;8.198;2024-02-15T02:59:09;17.60;;;8.13;;
75156;SDS011;63736;50.076;8.198;2024-02-15T03:00:39;18.67;;;9.30;;
75156;SDS011;63736;50.076;8.198;2024-02-15T03:02:09;15.93;;;8.10;;
75156;SDS011;63736;50.076;8.198;2024-02-15T03:03:40;18.97;;;9.43;;
75156;SDS011;63736;50.076;8.198;2024-02-15T03:05:10;17.93;;;9.53;;
75156;SDS011;63736;50.076;8.198;2024-02-15T03:06:41;17.50;;;9.38;;
75156;SDS011;63736;50.076;8.198;2024-02-15T03:08:12;19.35;;;9.50;;
75156;SDS011;63736;50.076;8.198;2024-02-15T03:09:43;16.40;;;7.83;;
75156;SDS011;63736;50.076;8.198;2024-02-15T03:11:13;17.03;;;8.60;;
75156;SDS011;63736;50.076;8.198;2024-02-15T03:12:44;15.90;;;8.88;;
75156;SDS011;63736;50.076;8.198;2024-02-15T03:14:17;16.25;;;8.18;;
75156;SDS011;63736;50.076;8.198;2024-02-15T03:15:48;19.00;;;9.37;;
75156;SDS011;63736;50.076;8.198;2024-02-15T03:17:18;18.30;;;9.17;;
75156;SDS011;63736;50.076;8.198;2024-02-15T03:18:48;15.50;;;8.17;;
75156;SDS011;63736;50.076;8.198;2024-02-15T03:20:18;14.75;;;8.00;;
75156;SDS011;63736;50.076;8.198;2024-02-15T03:21:53;14.93;;;8.03;;
75156;SDS011;63736;50.076;8.198;2024-02-15T03:23:24;15.40;;;7.90;;
75156;SDS011;63736;50.076;8.198;2024-02-15T03:24:54;13.23;;;6.47;;
75156;SDS011;63736;50.076;8.198;2024-02-15T03:26:31;13.20;;;6.70;;
75156;SDS011;63736;50.076;8.198;2024-02-15T03:28:08;15.40;;;8.05;;
75156;SDS011;63736;50.076;8.198;2024-02-15T03:29:38;14.90;;;7.50;;
75156;SDS011;63736;50.076;8.198;2024-02-15T03:31:09;19.17;;;10.77;;
75156;SDS011;63736;50.076;8.198;2024-02-15T03:32:39;14.97;;;7.60;;
75156;SDS011;63736;50.076;8.198;2024-02-15T03:34:10;14.23;;;7.10;;
75156;SDS011;63736;50.076;8.198;2024-02-15T03:35:41;14.70;;;6.90;;
75156;SDS011;63736;50.076;8.198;2024-02-15T03:37:11;13.30;;;7.22;;
75156;SDS011;63736;50.076;8.198;2024-02-15T03:38:41;14.13;;;7.23;;
75156;SDS011;63736;50.076;8.198;2024-02-15T03:40:14;20.33;;;9.95;;
75156;SDS011;63736;50.076;8.198;2024-02-15T03:41:45;15.07;;;7.63;;
75156;SDS011;63736;50.076;8.198;2024-02-15T03:43:15;15.47;;;7.77;;
75156;SDS011;63736;50.076;8.198;2024-02-15T03:44:45;14.23;;;8.20;;
75156;SDS011;63736;50.076;8.198;2024-02-15T03:46:17;13.67;;;7.77;;
75156;SDS011;63736;50.076;8.198;2024-02-15T03:47:48;21.17;;;9.98;;
75156;SDS011;63736;50.076;8.198;2024-02-15T03:49:19;16.23;;;8.07;;
75156;SDS011;63736;50.076;8.198;2024-02-15T03:50:50;14.77;;;8.07;;
75156;SDS011;63736;50.076;8.198;2024-02-15T03:52:20;14.60;;;7.43;;
75156;SDS011;63736;50.076;8.198;2024-02-15T03:53:51;17.27;;;8.37;;
75156;SDS011;63736;50.076;8.198;2024-02-15T03:55:22;15.07;;;8.32;;
75156;SDS011;63736;50.076;8.198;2024-02-15T03:56:52;17.37;;;9.03;;
75156;SDS011;63736;50.076;8.198;2024-02-15T03:58:22;16.83;;;8.20;;
75156;SDS011;63736;50.076;8.198;2024-02-15T03:59:52;15.90;;;7.60;;
75156;SDS011;63736;50.076;8.198;2024-02-15T04:01:24;14.25;;;7.68;;
75156;SDS011;63736;50.076;8.198;2024-02-15T04:02:54;15.27;;;7.65;;
75156;SDS011;63736;50.076;8.198;2024-02-15T04:04:26;14.57;;;7.77;;
75156;SDS011;63736;50.076;8.198;2024-02-15T04:05:59;12.57;;;6.47;;
75156;SDS011;63736;50.076;8.198;2024-02-15T04:07:30;14.95;;;8.55;;
75156;SDS011;63736;50.076;8.198;2024-02-15T04:09:00;15.30;;;8.18;;
75156;SDS011;63736;50.076;8.198;2024-02-15T04:10:31;24.30;;;11.43;;
75156;SDS011;63736;50.076;8.198;2024-02-15T04:12:01;16.57;;;8.53;;
75156;SDS011;63736;50.076;8.198;2024-02-15T04:13:32;17.52;;;8.50;;
75156;SDS011;63736;50.076;8.198;2024-02-15T04:15:03;15.73;;;8.20;;
75156;SDS011;63736;50.076;8.198;2024-02-15T04:16:41;16.65;;;8.48;;
75156;SDS011;63736;50.076;8.198;2024-02-15T04:18:11;16.90;;;8.97;;
75156;SDS011;63736;50.076;8.198;2024-02-15T04:19:45;19.15;;;8.63;;
75156;SDS011;63736;50.076;8.198;2024-02-15T04:21:24;18.27;;;9.15;;
75156;SDS011;63736;50.076;8.198;2024-02-15T04:22:54;19.17;;;9.47;;
75156;SDS011;63736;50.076;8.198;2024-02-15T04:24:24;18.57;;;10.70;;
75156;SDS011;63736;50.076;8.198;2024-02-15T04:25:55;18.77;;;8.10;;
75156;SDS011;63736;50.076;8.198;2024-02-15T04:27:26;15.63;;;7.63;;
75156;SDS011;63736;50.076;8.198;2024-02-15T04:28:56;12.77;;;7.88;;
75156;SDS011;63736;50.076;8.198;2024-02-15T04:30:27;15.55;;;8.27;;
75156;SDS011;63736;50.076;8.198;2024-02-15T04:31:58;19.30;;;10.20;;
75156;SDS011;63736;50.076;8.198;2024-02-15T04:33:28;14.63;;;8.03;;
75156;SDS011;63736;50.076;8.198;2024-02-15T04:34:58;16.37;;;9.10;;
75156;SDS011;63736;50.076;8.198;2024-02-15T04:36:30;18.85;;;9.52;;
75156;SDS011;63736;50.076;8.198;2024-02-15T04:38:03;20.38;;;9.82;;
75156;SDS011;63736;50.076;8.198;2024-02-15T04:39:34;19.90;;;10.60;;
75156;SDS011;63736;50.076;8.198;2024-02-15T04:41:05;18.02;;;9.23;;
75156;SDS011;63736;50.076;8.198;2024-02-15T04:42:39;17.15;;;8.30;;
75156;SDS011;63736;50.076;8.198;2024-02-15T04:44:13;18.10;;;8.63;;
75156;SDS011;63736;50.076;8.198;2024-02-15T04:45:43;15.40;;;8.90;;
75156;SDS011;63736;50.076;8.198;2024-02-15T04:47:15;17.48;;;8.55;;
75156;SDS011;63736;50.076;8.198;2024-02-15T04:48:46;20.43;;;10.13;;
75156;SDS011;63736;50.076;8.198;2024-02-15T04:50:17;15.77;;;8.23;;
75156;SDS011;63736;50.076;8.198;2024-02-15T04:51:48;18.58;;;9.98;;
75156;SDS011;63736;50.076;8.198;2024-02-15T04:53:18;22.00;;;9.77;;
75156;SDS011;63736;50.076;8.198;2024-02-15T04:54:48;13.90;;;7.90;;
75156;SDS011;63736;50.076;8.198;2024-02-15T04:56:19;19.27;;;9.47;;
75156;SDS011;63736;50.076;8.198;2024-02-15T04:57:50;20.90;;;9.55;;
75156;SDS011;63736;50.076;8.198;2024-02-15T04:59:24;18.10;;;9.50;;
75156;SDS011;63736;50.076;8.198;2024-02-15T05:00:59;19.67;;;9.50;;
75156;SDS011;63736;50.076;8.198;2024-02-15T05:02:29;17.27;;;7.93;;
75156;SDS011;63736;50.076;8.198;2024-02-15T05:04:00;15.50;;;7.90;;
75156;SDS011;63736;50.076;8.198;2024-02-15T05:05:30;19.10;;;9.93;;
75156;SDS011;63736;50.076;8.198;2024-02-15T05:07:01;16.67;;;8.18;;
75156;SDS011;63736;50.076;8.198;2024-02-15T05:08:31;19.67;;;9.77;;
75156;SDS011;63736;50.076;8.198;2024-02-15T05:10:01;17.80;;;9.40;;
75156;SDS011;63736;50.076;8.198;2024-02-15T05:11:32;17.08;;;9.10;;
75156;SDS011;63736;50.076;8.198;2024-02-15T05:13:06;14.67;;;7.07;;
75156;SDS011;63736;50.076;8.198;2024-02-15T05:14:36;15.85;;;7.70;;
75156;SDS011;63736;50.076;8.198;2024-02-15T05:16:07;16.00;;;7.60;;
75156;SDS011;63736;50.076;8.198;2024-02-15T05:17:38;18.53;;;9.13;;
75156;SDS011;63736;50.076;8.198;2024-02-15T05:19:10;18.23;;;8.52;;
75156;SDS011;63736;50.076;8.198;2024-02-15T05:20:43;18.15;;;8.30;;
75156;SDS011;63736;50.076;8.198;2024-02-15T05:22:13;15.17;;;7.37;;
75156;SDS011;63736;50.076;8.198;2024-02-15T05:23:45;15.40;;;7.75;;
75156;SDS011;63736;50.076;8.198;2024-02-15T05:25:15;18.08;;;8.32;;
75156;SDS011;63736;50.076;8.198;2024-02-15T05:26:52;18.92;;;8.73;;
75156;SDS011;63736;50.076;8.198;2024-02-15T05:28:22;18.83;;;8.80;;
75156;SDS011;63736;50.076;8.198;2024-02-15T05:29:56;13.93;;;7.60;;
75156;SDS011;63736;50.076;8.198;2024-02-15T05:31:27;13.83;;;6.60;;
75156;SDS011;63736;50.076;8.198;2024-02-15T05:32:57;18.10;;;7.87;;
75156;SDS011;63736;50.076;8.198;2024-02-15T05:34:28;14.25;;;8.02;;
75156;SDS011;63736;50.076;8.198;2024-02-15T05:35:59;12.13;;;6.83;;
75156;SDS011;63736;50.076;8.198;2024-02-15T05:37:29;15.43;;;8.37;;
75156;SDS011;63736;50.076;8.198;2024-02-15T05:39:00;17.33;;;8.33;;
75156;SDS011;63736;50.076;8.198;2024-02-15T05:40:32;18.23;;;9.48;;
75156;SDS011;63736;50.076;8.198;2024-02-15T05:42:03;22.43;;;10.70;;
75156;SDS011;63736;50.076;8.198;2024-02-15T05:43:36;22.85;;;11.50;;
75156;SDS011;63736;50.076;8.198;2024-02-15T05:45:26;19.50;;;9.97;;
75156;SDS011;63736;50.076;8.198;2024-02-15T05:46:59;23.77;;;11.60;;
75156;SDS011;63736;50.076;8.198;2024-02-15T05:48:30;21.13;;;10.95;;
75156;SDS011;63736;50.076;8.198;2024-02-15T05:50:00;21.17;;;10.93;;
75156;SDS011;63736;50.076;8.198;2024-02-15T05:51:35;24.58;;;11.95;;
75156;SDS011;63736;50.076;8.198;2024-02-15T05:53:05;26.27;;;11.60;;
75156;SDS011;63736;50.076;8.198;2024-02-15T05:54:37;21.05;;;10.90;;
75156;SDS011;63736;50.076;8.198;2024-02-15T05:56:09;21.95;;;10.70;;
75156;SDS011;63736;50.076;8.198;2024-02-15T05:57:43;20.05;;;9.50;;
75156;SDS011;63736;50.076;8.198;2024-02-15T05:59:14;22.07;;;11.13;;
75156;SDS011;63736;50.076;8.198;2024-02-15T06:00:46;26.30;;;11.00;;
75156;SDS011;63736;50.076;8.198;2024-02-15T06:02:19;22.13;;;9.32;;
75156;SDS011;63736;50.076;8.198;2024-02-15T06:03:50;21.97;;;11.30;;
75156;SDS011;63736;50.076;8.198;2024-02-15T06:05:24;21.17;;;9.35;;
75156;SDS011;63736;50.076;8.198;2024-02-15T06:06:55;20.07;;;9.77;;
75156;SDS011;63736;50.076;8.198;2024-02-15T06:08:28;19.48;;;9.05;;
75156;SDS011;63736;50.076;8.198;2024-02-15T06:10:01;17.95;;;8.82;;
75156;SDS011;63736;50.076;8.198;2024-02-15T06:11:33;16.10;;;9.32;;
75156;SDS011;63736;50.076;8.198;2024-02-15T06:13:03;15.10;;;8.10;;
75156;SDS011;63736;50.076;8.198;2024-02-15T06:14:34;17.87;;;8.57;;
75156;SDS011;63736;50.076;8.198;2024-02-15T06:16:04;20.75;;;9.88;;
75156;SDS011;63736;50.076;8.198;2024-02-15T06:17:39;19.07;;;9.30;;
75156;SDS011;63736;50.076;8.198;2024-02-15T06:19:09;21.25;;;10.98;;
75156;SDS011;63736;50.076;8.198;2024-02-15T06:20:39;25.37;;;10.20;;
75156;SDS011;63736;50.076;8.198;2024-02-15T06:22:10;19.43;;;10.00;;
75156;SDS011;63736;50.076;8.198;2024-02-15T06:23:42;18.95;;;9.32;;
75156;SDS011;63736;50.076;8.198;2024-02-15T06:25:12;19.57;;;9.10;;
75156;SDS011;63736;50.076;8.198;2024-02-15T06:26:45;18.25;;;9.82;;
75156;SDS011;63736;50.076;8.198;2024-02-15T06:28:15;18.50;;;9.73;;
75156;SDS011;63736;50.076;8.198;2024-02-15T06:30:09;20.83;;;10.02;;
75156;SDS011;63736;50.076;8.198;2024-02-15T06:31:58;20.52;;;10.25;;
75156;SDS011;63736;50.076;8.198;2024-02-15T06:33:47;21.90;;;10.75;;
75156;SDS011;63736;50.076;8.198;2024-02-15T06:35:36;19.50;;;10.15;;
75156;SDS011;63736;50.076;8.198;2024-02-15T06:37:34;16.85;;;8.68;;
75156;SDS011;63736;50.076;8.198;2024-02-15T06:39:24;20.13;;;10.60;;
75156;SDS011;63736;50.076;8.198;2024-02-15T06:41:15;18.27;;;9.10;;
75156;SDS011;63736;50.076;8.198;2024-02-15T06:42:45;20.73;;;11.07;;
75156;SDS011;63736;50.076;8.198;2024-02-15T06:44:16;26.60;;;12.23;;
75156;SDS011;63736;50.076;8.198;2024-02-15T06:45:46;22.83;;;11.87;;
75156;SDS011;63736;50.076;8.198;2024-02-15T06:47:16;24.97;;;12.23;;
75156;SDS011;63736;50.076;8.198;2024-02-15T06:48:49;23.88;;;11.88;;
75156;SDS011;63736;50.076;8.198;2024-02-15T06:50:19;26.97;;;12.17;;
75156;SDS011;63736;50.076;8.198;2024-02-15T06:51:49;21.83;;;10.80;;
75156;SDS011;63736;50.076;8.198;2024-02-15T06:53:20;17.77;;;9.67;;
75156;SDS011;63736;50.076;8.198;2024-02-15T06:54:50;19.48;;;10.43;;
75156;SDS011;63736;50.076;8.198;2024-02-15T06:56:22;21.87;;;11.33;;
75156;SDS011;63736;50.076;8.198;2024-02-15T06:57:52;19.70;;;10.18;;
75156;SDS011;63736;50.076;8.198;2024-02-15T06:59:24;22.20;;;10.70;;
75156;SDS011;63736;50.076;8.198;2024-02-15T07:00:54;20.25;;;10.23;;
75156;SDS011;63736;50.076;8.198;2024-02-15T07:02:24;19.53;;;9.83;;
75156;SDS011;63736;50.076;8.198;2024-02-15T07:03:55;19.50;;;10.23;;
75156;SDS011;63736;50.076;8.198;2024-02-15T07:05:26;16.05;;;8.98;;
75156;SDS011;63736;50.076;8.198;2024-02-15T07:06:58;22.90;;;10.67;;
75156;SDS011;63736;50.076;8.198;2024-02-15T07:08:29;18.93;;;9.73;;
75156;SDS011;63736;50.076;8.198;2024-02-15T07:10:01;20.38;;;10.00;;
75156;SDS011;63736;50.076;8.198;2024-02-15T07:11:33;18.40;;;10.52;;
75156;SDS011;63736;50.076;8.198;2024-02-15T07:13:06;23.85;;;11.45;;
75156;SDS011;63736;50.076;8.198;2024-02-15T07:14:36;26.00;;;12.63;;
75156;SDS011;63736;50.076;8.198;2024-02-15T07:16:09;20.47;;;9.87;;
75156;SDS011;63736;50.076;8.198;2024-02-15T07:17:40;21.40;;;10.50;;
75156;SDS011;63736;50.076;8.198;2024-02-15T07:19:10;20.30;;;10.63;;
75156;SDS011;63736;50.076;8.198;2024-02-15T07:20:40;24.83;;;12.40;;
75156;SDS011;63736;50.076;8.198;2024-02-15T07:22:11;19.40;;;9.63;;
75156;SDS011;63736;50.076;8.198;2024-02-15T07:23:42;23.90;;;11.37;;
75156;SDS011;63736;50.076;8.198;2024-02-15T07:25:12;25.10;;;12.27;;
75156;SDS011;63736;50.076;8.198;2024-02-15T07:26:44;19.30;;;10.73;;
75156;SDS011;63736;50.076;8.198;2024-02-15T07:28:14;22.02;;;10.38;;
75156;SDS011;63736;50.076;8.198;2024-02-15T07:29:45;24.30;;;12.77;;
75156;SDS011;63736;50.076;8.198;2024-02-15T07:31:15;20.73;;;10.33;;
75156;SDS011;63736;50.076;8.198;2024-02-15T07:32:45;19.40;;;10.40;;
75156;SDS011;63736;50.076;8.198;2024-02-15T07:34:15;17.40;;;8.93;;
75156;SDS011;63736;50.076;8.198;2024-02-15T07:35:46;21.13;;;11.60;;
75156;SDS011;63736;50.076;8.198;2024-02-15T07:37:16;19.73;;;10.03;;
75156;SDS011;63736;50.076;8.198;2024-02-15T07:38:46;17.85;;;9.85;;
75156;SDS011;63736;50.076;8.198;2024-02-15T07:40:18;19.63;;;10.37;;
75156;SDS011;63736;50.076;8.198;2024-02-15T07:41:49;17.10;;;9.63;;
75156;SDS011;63736;50.076;8.198;2024-02-15T07:43:20;17.48;;;9.30;;
75156;SDS011;63736;50.076;8.198;2024-02-15T07:44:51;20.27;;;10.90;;
75156;SDS011;63736;50.076;8.198;2024-02-15T07:46:24;19.05;;;8.80;;
75156;SDS011;63736;50.076;8.198;2024-02-15T07:47:54;16.40;;;8.47;;
75156;SDS011;63736;50.076;8.198;2024-02-15T07:49:25;15.17;;;9.30;;
75156;SDS011;63736;50.076;8.198;2024-02-15T07:50:55;58.60;;;30.02;;
75156;SDS011;63736;50.076;8.198;2024-02-15T07:52:28;71.10;;;36.57;;
75156;SDS011;63736;50.076;8.198;2024-02-15T07:53:59;35.17;;;18.38;;
75156;SDS011;63736;50.076;8.198;2024-02-15T07:55:31;24.48;;;12.68;;
75156;SDS011;63736;50.076;8.198;2024-02-15T07:57:01;20.17;;;10.73;;
75156;SDS011;63736;50.076;8.198;2024-02-15T07:58:31;17.20;;;9.82;;
75156;SDS011;63736;50.076;8.198;2024-02-15T08:00:02;19.23;;;9.63;;
75156;SDS011;63736;50.076;8.198;2024-02-15T08:01:35;16.70;;;8.37;;
75156;SDS011;63736;50.076;8.198;2024-02-15T08:03:06;16.50;;;8.17;;
75156;SDS011;63736;50.076;8.198;2024-02-15T08:04:37;20.30;;;10.20;;
75156;SDS011;63736;50.076;8.198;2024-02-15T08:06:11;19.17;;;9.97;;
75156;SDS011;63736;50.076;8.198;2024-02-15T08:07:45;17.83;;;9.75;;
75156;SDS011;63736;50.076;8.198;2024-02-15T08:09:17;17.75;;;9.63;;
75156;SDS011;63736;50.076;8.198;2024-02-15T08:10:48;19.90;;;10.13;;
75156;SDS011;63736;50.076;8.198;2024-02-15T08:12:21;31.05;;;17.25;;
75156;SDS011;63736;50.076;8.198;2024-02-15T08:13:51;30.80;;;16.77;;
75156;SDS011;63736;50.076;8.198;2024-02-15T08:15:24;22.33;;;12.05;;
75156;SDS011;63736;50.076;8.198;2024-02-15T08:16:57;22.35;;;12.68;;
75156;SDS011;63736;50.076;8.198;2024-02-15T08:18:27;20.87;;;12.57;;
75156;SDS011;63736;50.076;8.198;2024-02-15T08:19:57;31.80;;;16.70;;
75156;SDS011;63736;50.076;8.198;2024-02-15T08:21:28;27.20;;;14.77;;
75156;SDS011;63736;50.076;8.198;2024-02-15T08:23:10;27.70;;;16.00;;
75156;SDS011;63736;50.076;8.198;2024-02-15T08:24:40;31.20;;;16.40;;
75156;SDS011;63736;50.076;8.198;2024-02-15T08:26:11;27.15;;;16.38;;
75156;SDS011;63736;50.076;8.198;2024-02-15T08:27:42;24.30;;;13.67;;
75156;SDS011;63736;50.076;8.198;2024-02-15T08:29:14;21.35;;;11.75;;
75156;SDS011;63736;50.076;8.198;2024-02-15T08:30:44;20.70;;;9.93;;
75156;SDS011;63736;50.076;8.198;2024-02-15T08:32:15;18.13;;;10.30;;
75156;SDS011;63736;50.076;8.198;2024-02-15T08:33:45;19.57;;;9.13;;
75156;SDS011;63736;50.076;8.198;2024-02-15T08:35:16;18.17;;;9.85;;
75156;SDS011;63736;50.076;8.198;2024-02-15T08:36:46;18.50;;;10.57;;
75156;SDS011;63736;50.076;8.198;2024-02-15T08:38:18;17.83;;;8.15;;
75156;SDS011;63736;50.076;8.198;2024-02-15T08:39:48;17.13;;;9.20;;
75156;SDS011;63736;50.076;8.198;2024-02-15T08:41:19;16.17;;;8.27;;
75156;SDS011;63736;50.076;8.198;2024-02-15T08:42:50;13.45;;;7.13;;
75156;SDS011;63736;50.076;8.198;2024-02-15T08:44:21;13.27;;;7.37;;
75156;SDS011;63736;50.076;8.198;2024-02-15T08:45:51;13.10;;;7.15;;
75156;SDS011;63736;50.076;8.198;2024-02-15T08:47:23;13.85;;;7.47;;
75156;SDS011;63736;50.076;8.198;2024-02-15T08:48:53;15.73;;;7.10;;
75156;SDS011;63736;50.076;8.198;2024-02-15T08:50:23;18.87;;;9.47;;
75156;SDS011;63736;50.076;8.198;2024-02-15T08:51:53;15.27;;;8.37;;
75156;SDS011;63736;50.076;8.198;2024-02-15T08:53:24;16.17;;;7.93;;
75156;SDS011;63736;50.076;8.198;2024-02-15T08:54:54;13.32;;;7.13;;
75156;SDS011;63736;50.076;8.198;2024-02-15T08:56:27;15.98;;;8.35;;
75156;SDS011;63736;50.076;8.198;2024-02-15T08:57:57;13.53;;;6.87;;
75156;SDS011;63736;50.076;8.198;2024-02-15T08:59:29;12.85;;;7.10;;
75156;SDS011;63736;50.076;8.198;2024-02-15T09:01:00;18.17;;;7.37;;
75156;SDS011;63736;50.076;8.198;2024-02-15T09:02:30;12.50;;;6.33;;